Time;durP1;ratioP1;P1;durP2;ratioP2;P2;SDS_P1;SDS_P2;PMS_P1;PMS_P2;Temp;Humidity;BMP_temperature;BMP_pressure;BME280_temperature;BME280_humidity;BME280_pressure;Samples;Min_cycle;Max_cycle;Signal;HPM_P1;HPM_P2
2022/08/16 00:00:42;;;;;;;15.13;13.50;;;22.70;99.90;;;;;;5050674;28;20021;-68
2022/08/16 00:03:09;;;;;;;14.52;12.18;;;22.70;99.90;;;;;;5052955;28;20122;-68
2022/08/16 00:05:35;;;;;;;13.90;12.50;;;22.60;99.90;;;;;;5034126;28;20577;-69
2022/08/16 00:08:01;;;;;;;15.30;13.43;;;22.60;99.90;;;;;;5052644;28;20029;-68
2022/08/16 00:10:31;;;;;;;18.05;14.18;;;22.60;99.90;;;;;;5052335;28;20032;-68
2022/08/16 00:12:58;;;;;;;14.68;13.13;;;22.60;99.90;;;;;;5051784;28;20025;-68
2022/08/16 00:15:34;;;;;;;15.48;13.45;;;22.60;99.90;;;;;;5050982;28;20028;-68
2022/08/16 00:18:00;;;;;;;16.67;13.77;;;22.60;99.90;;;;;;5050064;28;20036;-68
2022/08/16 00:20:26;;;;;;;14.68;13.15;;;22.50;99.90;;;;;;5046545;28;20380;-68
2022/08/16 00:22:52;;;;;;;16.00;14.30;;;22.50;99.90;;;;;;5048078;28;20086;-68
2022/08/16 00:25:20;;;;;;;13.82;12.43;;;22.50;99.90;;;;;;5051564;28;20549;-68
2022/08/16 00:27:46;;;;;;;14.68;13.18;;;22.50;99.90;;;;;;5051156;28;20040;-68
2022/08/16 00:30:13;;;;;;;17.52;14.13;;;22.50;99.90;;;;;;5051338;28;20099;-68
2022/08/16 00:32:42;;;;;;;18.70;13.77;;;22.50;99.90;;;;;;5045332;28;20047;-68
2022/08/16 00:35:13;;;;;;;15.35;13.07;;;22.50;99.90;;;;;;5052616;28;20025;-68
2022/08/16 00:37:39;;;;;;;14.50;12.25;;;22.50;99.90;;;;;;5051789;28;20029;-68
2022/08/16 00:40:07;;;;;;;15.02;12.70;;;22.50;99.90;;;;;;5041916;28;20025;-68
2022/08/16 00:42:32;;;;;;;14.25;12.05;;;22.50;99.90;;;;;;5050309;28;20025;-68
2022/08/16 00:45:03;;;;;;;14.68;12.30;;;22.50;99.90;;;;;;5033351;28;20404;-68
2022/08/16 00:47:29;;;;;;;13.38;11.63;;;22.50;99.90;;;;;;5049621;28;20502;-68
2022/08/16 00:49:55;;;;;;;13.98;12.45;;;22.50;99.90;;;;;;5051815;28;20285;-68
2022/08/16 00:52:21;;;;;;;14.27;12.77;;;22.50;99.90;;;;;;5049914;28;20021;-68
2022/08/16 00:54:46;;;;;;;14.75;13.00;;;22.50;99.90;;;;;;5050010;28;20082;-68
2022/08/16 00:57:12;;;;;;;13.40;11.75;;;22.40;99.90;;;;;;5049302;28;20028;-69
2022/08/16 00:59:39;;;;;;;15.07;13.55;;;22.40;99.90;;;;;;5049962;28;20129;-68
2022/08/16 01:02:07;;;;;;;13.60;12.20;;;22.40;99.90;;;;;;5050663;28;20032;-68
2022/08/16 01:04:34;;;;;;;13.75;12.35;;;22.40;99.90;;;;;;5051740;28;20029;-69
2022/08/16 01:07:02;;;;;;;14.02;11.77;;;22.30;99.90;;;;;;5048965;28;20041;-69
2022/08/16 01:09:34;;;;;;;12.40;11.10;;;22.30;99.90;;;;;;5050458;28;20222;-68
2022/08/16 01:12:03;;;;;;;13.13;11.82;;;22.30;99.90;;;;;;5040360;28;20033;-68
2022/08/16 01:14:35;;;;;;;13.48;12.07;;;22.30;99.90;;;;;;5051838;28;20145;-69
2022/08/16 01:17:02;;;;;;;13.60;12.25;;;22.30;99.90;;;;;;5043857;28;20025;-68
2022/08/16 01:19:32;;;;;;;14.45;12.00;;;22.30;99.90;;;;;;5051727;28;20032;-68
2022/08/16 01:22:05;;;;;;;13.60;12.07;;;22.20;99.90;;;;;;5039389;28;20036;-69
2022/08/16 01:24:41;;;;;;;15.10;13.60;;;22.20;99.90;;;;;;5051271;28;20106;-69
2022/08/16 01:27:11;;;;;;;15.20;12.18;;;22.20;99.90;;;;;;5050390;28;20056;-68
2022/08/16 01:29:45;;;;;;;13.82;12.38;;;22.10;99.90;;;;;;5050778;28;20560;-69
2022/08/16 01:32:11;;;;;;;12.90;11.20;;;22.10;99.90;;;;;;5046667;28;20047;-68
2022/08/16 01:34:36;;;;;;;13.10;11.57;;;22.00;99.90;;;;;;5051999;28;20025;-69
2022/08/16 01:37:07;;;;;;;14.82;13.27;;;22.00;99.90;;;;;;5049974;28;20107;-68
2022/08/16 01:39:34;;;;;;;14.23;12.75;;;22.00;99.90;;;;;;5051815;28;20056;-68
2022/08/16 01:42:00;;;;;;;14.20;12.70;;;21.90;99.90;;;;;;5049624;28;20115;-69
2022/08/16 01:44:26;;;;;;;14.75;13.15;;;21.90;99.90;;;;;;5051692;28;20511;-68
2022/08/16 01:46:52;;;;;;;13.95;12.55;;;22.00;99.90;;;;;;5050204;28;20045;-69
2022/08/16 01:49:31;;;;;;;16.05;12.82;;;21.90;99.90;;;;;;5051448;28;20029;-69
2022/08/16 01:52:01;;;;;;;14.85;12.95;;;21.90;99.90;;;;;;5047420;28;20148;-69
2022/08/16 01:54:28;;;;;;;14.05;12.55;;;21.90;99.90;;;;;;5051666;28;20350;-68
2022/08/16 01:56:53;;;;;;;14.35;12.85;;;21.90;99.90;;;;;;5049964;28;20422;-68
2022/08/16 01:59:20;;;;;;;16.05;13.60;;;21.90;99.90;;;;;;5051181;28;20117;-68
2022/08/16 02:01:49;;;;;;;13.52;12.02;;;21.90;99.90;;;;;;5048873;28;20033;-68
2022/08/16 02:04:15;;;;;;;15.23;13.70;;;21.90;99.90;;;;;;5049182;28;20017;-67
2022/08/16 02:06:41;;;;;;;14.98;12.93;;;21.90;99.90;;;;;;5048504;28;20055;-68
2022/08/16 02:09:08;;;;;;;16.10;12.88;;;21.90;99.90;;;;;;5051276;28;20029;-68
2022/08/16 02:11:36;;;;;;;13.70;12.30;;;21.90;99.90;;;;;;5050090;28;20056;-68
2022/08/16 02:14:02;;;;;;;16.63;13.13;;;21.90;99.90;;;;;;5050724;28;20025;-68
2022/08/16 02:16:27;;;;;;;14.43;12.90;;;21.90;99.90;;;;;;5049718;28;20052;-68
2022/08/16 02:18:53;;;;;;;14.23;12.00;;;21.90;99.90;;;;;;5051137;28;20029;-67
2022/08/16 02:21:19;;;;;;;15.40;12.18;;;21.90;99.90;;;;;;5049719;28;20546;-68
2022/08/16 02:23:45;;;;;;;13.90;12.50;;;21.90;99.90;;;;;;5051343;28;20384;-68
2022/08/16 02:26:11;;;;;;;15.00;13.43;;;21.90;99.90;;;;;;5049257;28;20045;-68
2022/08/16 02:28:37;;;;;;;15.90;13.35;;;21.90;99.90;;;;;;5050175;28;20025;-68
2022/08/16 02:31:07;;;;;;;14.73;12.52;;;21.90;99.90;;;;;;5036325;28;20040;-68
2022/08/16 02:33:33;;;;;;;15.32;13.77;;;21.90;99.90;;;;;;5050424;28;20104;-68
2022/08/16 02:35:58;;;;;;;15.20;12.73;;;21.90;99.90;;;;;;5049270;28;20134;-68
2022/08/16 02:38:25;;;;;;;14.40;12.40;;;21.90;99.90;;;;;;5050110;28;20114;-68
2022/08/16 02:40:51;;;;;;;15.88;14.23;;;21.80;99.90;;;;;;5050810;28;20040;-68
2022/08/16 02:43:17;;;;;;;15.75;13.10;;;21.80;99.90;;;;;;5049773;28;20384;-68
2022/08/16 02:45:42;;;;;;;15.57;13.98;;;21.80;99.90;;;;;;5049713;28;20369;-68
2022/08/16 02:48:08;;;;;;;15.75;13.15;;;21.80;99.90;;;;;;5049500;28;20037;-68
2022/08/16 02:50:34;;;;;;;17.92;13.02;;;21.80;99.90;;;;;;5050573;28;20021;-69
2022/08/16 02:53:00;;;;;;;16.58;14.55;;;21.80;99.90;;;;;;5049390;28;20384;-69
2022/08/16 02:55:25;;;;;;;15.38;13.55;;;21.80;99.90;;;;;;5048929;28;20494;-69
2022/08/16 02:57:51;;;;;;;16.02;13.68;;;21.80;99.90;;;;;;5049891;28;20037;-69
2022/08/16 03:00:17;;;;;;;15.27;13.20;;;21.70;99.90;;;;;;5050088;28;20021;-69
2022/08/16 03:02:44;;;;;;;15.52;13.93;;;21.70;99.90;;;;;;5049185;28;20439;-69
2022/08/16 03:05:11;;;;;;;15.32;13.73;;;21.70;99.90;;;;;;5050634;28;20488;-69
2022/08/16 03:07:38;;;;;;;13.85;12.45;;;21.70;99.90;;;;;;5048508;28;20033;-69
2022/08/16 03:10:07;;;;;;;15.82;14.10;;;21.70;99.90;;;;;;5050027;28;20036;-69
2022/08/16 03:12:33;;;;;;;14.15;11.52;;;21.60;99.90;;;;;;5047946;28;20021;-69
2022/08/16 03:14:58;;;;;;;14.52;13.02;;;21.60;99.90;;;;;;5049445;28;20490;-69
2022/08/16 03:17:25;;;;;;;16.42;14.38;;;21.60;99.90;;;;;;5047941;28;20033;-69
2022/08/16 03:19:52;;;;;;;15.27;13.68;;;21.60;99.90;;;;;;5053355;28;20057;-68
2022/08/16 03:22:19;;;;;;;15.45;13.80;;;21.60;99.90;;;;;;5053241;28;20032;-68
2022/08/16 03:24:45;;;;;;;15.57;13.98;;;21.60;99.90;;;;;;5052581;28;20064;-68
2022/08/16 03:27:11;;;;;;;15.38;13.63;;;21.50;99.90;;;;;;5052604;28;20080;-68
2022/08/16 03:29:36;;;;;;;15.90;14.20;;;21.50;99.90;;;;;;5052664;28;20029;-68
2022/08/16 03:32:03;;;;;;;16.65;14.60;;;21.50;99.90;;;;;;5039177;28;20029;-69
2022/08/16 03:34:30;;;;;;;17.08;14.82;;;21.50;99.90;;;;;;5053514;28;20123;-68
2022/08/16 03:36:56;;;;;;;16.50;14.80;;;21.50;99.90;;;;;;5053280;28;20091;-69
2022/08/16 03:39:22;;;;;;;18.38;13.52;;;21.40;99.90;;;;;;5052927;28;20418;-69
2022/08/16 03:41:48;;;;;;;15.57;14.00;;;21.40;99.90;;;;;;5052887;28;20025;-69
2022/08/16 03:44:14;;;;;;;15.88;14.18;;;21.50;99.90;;;;;;5053023;28;20052;-68
2022/08/16 03:46:40;;;;;;;16.98;14.57;;;21.50;99.90;;;;;;5052983;28;20044;-68
2022/08/16 03:49:08;;;;;;;13.75;12.30;;;21.50;99.90;;;;;;5053527;28;20025;-67
2022/08/16 03:51:33;;;;;;;16.38;14.38;;;21.50;99.90;;;;;;5051509;28;20079;-68
2022/08/16 03:54:02;;;;;;;15.65;13.98;;;21.50;99.90;;;;;;5052634;28;20051;-67
2022/08/16 03:56:28;;;;;;;16.58;14.65;;;21.50;99.90;;;;;;5050978;28;20063;-66
2022/08/16 03:58:55;;;;;;;14.65;13.00;;;21.60;99.90;;;;;;5035230;28;20029;-68
2022/08/16 04:01:22;;;;;;;16.55;13.38;;;21.60;99.90;;;;;;5051512;28;20036;-68
2022/08/16 04:03:48;;;;;;;16.17;12.98;;;21.60;99.90;;;;;;5042021;28;20111;-68
2022/08/16 04:06:14;;;;;;;14.40;12.75;;;21.60;99.90;;;;;;5050421;28;20041;-68
2022/08/16 04:08:39;;;;;;;15.77;13.07;;;21.50;99.90;;;;;;5051234;28;20031;-68
2022/08/16 04:11:05;;;;;;;17.08;14.48;;;21.60;99.90;;;;;;5051858;28;20021;-68
2022/08/16 04:13:31;;;;;;;16.20;14.52;;;21.60;99.90;;;;;;5052053;28;20155;-68
2022/08/16 04:15:58;;;;;;;15.98;13.38;;;21.60;99.90;;;;;;5053008;28;20028;-69
2022/08/16 04:18:24;;;;;;;16.92;13.68;;;21.60;99.90;;;;;;5051360;28;20037;-68
2022/08/16 04:20:50;;;;;;;15.23;13.05;;;21.60;99.90;;;;;;5052558;28;20025;-68
2022/08/16 04:23:15;;;;;;;15.65;13.68;;;21.60;99.90;;;;;;5040937;28;20040;-69
2022/08/16 04:25:41;;;;;;;15.52;13.55;;;21.60;99.90;;;;;;5052528;28;20083;-69
2022/08/16 04:28:07;;;;;;;17.63;13.80;;;21.60;99.90;;;;;;5051846;28;20029;-69
2022/08/16 04:30:33;;;;;;;18.63;15.02;;;21.60;99.90;;;;;;5051531;28;20043;-69
2022/08/16 04:32:59;;;;;;;16.65;14.07;;;21.60;99.90;;;;;;5051604;28;20064;-69
2022/08/16 04:35:25;;;;;;;15.43;13.68;;;21.60;99.90;;;;;;5047133;28;20033;-68
2022/08/16 04:37:51;;;;;;;19.05;14.07;;;21.60;99.90;;;;;;5052049;28;20029;-68
2022/08/16 04:40:18;;;;;;;16.33;14.52;;;21.60;99.90;;;;;;5052364;28;20025;-69
2022/08/16 04:42:44;;;;;;;17.40;14.93;;;21.60;99.90;;;;;;5052102;28;20063;-68
2022/08/16 04:45:12;;;;;;;16.50;14.73;;;21.60;99.90;;;;;;5051754;28;20061;-69
2022/08/16 04:47:39;;;;;;;17.80;15.05;;;21.60;99.90;;;;;;5050617;28;20047;-69
2022/08/16 04:50:08;;;;;;;16.85;13.10;;;21.70;99.90;;;;;;5052272;28;20021;-68
2022/08/16 04:52:34;;;;;;;15.80;13.23;;;21.70;99.90;;;;;;5051434;28;20032;-68
2022/08/16 04:55:01;;;;;;;17.67;13.18;;;21.70;99.90;;;;;;5050919;28;20029;-68
2022/08/16 04:57:26;;;;;;;16.55;12.10;;;21.70;99.90;;;;;;5051715;28;20029;-69
2022/08/16 04:59:52;;;;;;;16.85;13.50;;;21.70;99.90;;;;;;5050619;28;20102;-68
2022/08/16 05:02:17;;;;;;;14.60;11.68;;;21.80;99.90;;;;;;5050942;28;20037;-68
2022/08/16 05:04:43;;;;;;;17.73;13.77;;;21.80;99.90;;;;;;5050400;28;20484;-70
2022/08/16 05:07:08;;;;;;;13.98;12.10;;;21.80;99.90;;;;;;5051024;28;20543;-69
2022/08/16 05:09:34;;;;;;;17.05;13.20;;;21.90;99.90;;;;;;5050782;28;20087;-69
2022/08/16 05:12:00;;;;;;;16.10;13.13;;;21.90;99.90;;;;;;5050828;28;20041;-68
2022/08/16 05:14:25;;;;;;;16.52;13.48;;;21.90;99.90;;;;;;5050939;28;20029;-68
2022/08/16 05:16:51;;;;;;;19.90;14.15;;;22.00;99.90;;;;;;5049271;28;20013;-69
2022/08/16 05:19:16;;;;;;;15.23;13.63;;;22.00;99.90;;;;;;5051073;28;20032;-69
2022/08/16 05:21:42;;;;;;;16.83;13.38;;;22.00;99.90;;;;;;5049584;28;20033;-69
2022/08/16 05:24:07;;;;;;;16.17;13.00;;;22.10;99.90;;;;;;5035977;28;20021;-69
2022/08/16 05:26:35;;;;;;;17.80;13.93;;;22.10;99.90;;;;;;5050202;28;20069;-69
2022/08/16 05:29:01;;;;;;;16.77;13.68;;;22.20;99.90;;;;;;5051356;28;20044;-72
2022/08/16 05:31:28;;;;;;;17.40;13.63;;;22.20;99.90;;;;;;5050628;28;20045;-72
2022/08/16 05:33:54;;;;;;;16.55;13.90;;;22.30;99.90;;;;;;5050371;28;20028;-72
2022/08/16 05:36:20;;;;;;;20.38;14.07;;;22.30;99.90;;;;;;5049956;28;20029;-69
2022/08/16 05:38:46;;;;;;;15.95;12.43;;;22.40;99.90;;;;;;5050999;28;20035;-72
2022/08/16 05:41:13;;;;;;;18.48;13.55;;;22.40;99.90;;;;;;5049558;28;20021;-72
2022/08/16 05:43:39;;;;;;;17.20;12.95;;;22.40;99.90;;;;;;5050500;28;20820;-72
2022/08/16 05:46:05;;;;;;;14.57;12.85;;;22.50;99.90;;;;;;5049850;28;20106;-72
2022/08/16 05:48:30;;;;;;;19.75;13.77;;;22.60;99.90;;;;;;5051211;28;20396;-72
2022/08/16 05:50:56;;;;;;;18.08;13.07;;;22.60;99.90;;;;;;5049435;28;20021;-72
2022/08/16 05:53:21;;;;;;;17.25;14.50;;;22.60;99.90;;;;;;5050102;28;20025;-72
2022/08/16 05:55:47;;;;;;;14.38;12.05;;;22.70;99.90;;;;;;5051082;28;20032;-72
2022/08/16 05:58:13;;;;;;;16.05;12.15;;;22.70;99.90;;;;;;5050616;28;20029;-71
2022/08/16 06:00:38;;;;;;;15.23;12.57;;;22.80;99.90;;;;;;5049034;28;20025;-72
2022/08/16 06:03:04;;;;;;;12.70;9.82;;;22.80;99.90;;;;;;5031977;28;20025;-72
2022/08/16 06:05:30;;;;;;;10.65;8.77;;;22.80;99.90;;;;;;5048752;28;20041;-71
2022/08/16 06:07:55;;;;;;;14.55;10.65;;;22.90;99.90;;;;;;5049735;28;20044;-71
2022/08/16 06:10:21;;;;;;;15.98;10.60;;;22.90;99.90;;;;;;5049560;28;20112;-70
2022/08/16 06:12:47;;;;;;;19.63;11.23;;;23.00;99.90;;;;;;5050086;28;20036;-71
2022/08/16 06:15:16;;;;;;;12.43;8.68;;;23.00;99.90;;;;;;5051029;28;20456;-72
2022/08/16 06:17:42;;;;;;;14.35;12.15;;;23.00;99.90;;;;;;5044852;28;20132;-71
2022/08/16 06:20:10;;;;;;;15.95;13.77;;;23.10;99.90;;;;;;5037907;28;20021;-69
2022/08/16 06:22:37;;;;;;;16.27;13.13;;;23.10;99.90;;;;;;5047238;28;20032;-70
2022/08/16 06:25:03;;;;;;;16.63;13.45;;;23.10;99.90;;;;;;5049398;28;20033;-71
2022/08/16 06:27:29;;;;;;;13.98;12.23;;;23.10;99.90;;;;;;5047920;28;20047;-70
2022/08/16 06:29:55;;;;;;;14.25;11.90;;;23.20;99.90;;;;;;5049578;28;20017;-71
2022/08/16 06:32:21;;;;;;;14.30;12.68;;;23.20;99.90;;;;;;5047402;28;20025;-70
2022/08/16 06:34:47;;;;;;;15.48;12.32;;;23.20;99.90;;;;;;5047594;28;20472;-70
2022/08/16 06:37:12;;;;;;;14.23;12.70;;;23.20;99.90;;;;;;5047901;28;20456;-70
2022/08/16 06:39:38;;;;;;;13.20;11.73;;;23.30;99.90;;;;;;5047723;28;20029;-70
2022/08/16 06:42:04;;;;;;;14.27;12.25;;;23.30;99.90;;;;;;5047867;28;20044;-69
2022/08/16 06:44:30;;;;;;;14.45;12.65;;;23.30;99.90;;;;;;5049204;28;20108;-70
2022/08/16 06:46:55;;;;;;;14.38;12.88;;;23.40;99.90;;;;;;5048649;28;20124;-70
2022/08/16 06:49:21;;;;;;;17.83;14.40;;;23.40;99.90;;;;;;5049180;28;20036;-70
2022/08/16 06:51:47;;;;;;;14.35;12.23;;;23.50;99.90;;;;;;5048715;28;20138;-70
2022/08/16 06:54:12;;;;;;;14.50;12.18;;;23.50;99.90;;;;;;5051623;28;20349;-70
2022/08/16 06:56:38;;;;;;;13.65;12.23;;;23.50;99.90;;;;;;5040830;28;20059;-70
2022/08/16 06:59:04;;;;;;;13.93;12.27;;;23.50;99.90;;;;;;5053124;28;20048;-70
2022/08/16 07:01:30;;;;;;;12.95;11.60;;;23.60;99.90;;;;;;5051749;28;20086;-70
2022/08/16 07:03:58;;;;;;;16.50;14.70;;;23.60;99.90;;;;;;5051973;28;20052;-71
2022/08/16 07:06:24;;;;;;;15.88;14.27;;;23.60;99.90;;;;;;5051862;28;20480;-71
2022/08/16 07:08:50;;;;;;;15.50;13.90;;;23.60;99.90;;;;;;5052329;28;20037;-70
2022/08/16 07:11:16;;;;;;;17.98;13.75;;;23.70;99.90;;;;;;5052409;28;20358;-70
2022/08/16 07:13:42;;;;;;;15.55;13.75;;;23.70;99.90;;;;;;5052745;28;20074;-71
2022/08/16 07:16:13;;;;;;;16.40;14.07;;;23.70;99.90;;;;;;5051491;28;20021;-71
2022/08/16 07:18:41;;;;;;;23.80;14.88;;;23.70;99.90;;;;;;5049128;28;20040;-71
2022/08/16 07:21:08;;;;;;;18.58;14.38;;;23.80;99.90;;;;;;5048473;28;20047;-71
2022/08/16 07:23:35;;;;;;;19.58;13.77;;;23.90;99.90;;;;;;5041935;28;20037;-71
2022/08/16 07:26:03;;;;;;;17.17;13.98;;;23.90;99.90;;;;;;5052202;28;20116;-71
2022/08/16 07:28:29;;;;;;;14.98;12.90;;;24.00;99.90;;;;;;5049990;28;20074;-71
2022/08/16 07:30:55;;;;;;;15.38;13.77;;;24.00;99.90;;;;;;5052084;28;20021;-71
2022/08/16 07:33:21;;;;;;;14.80;11.88;;;24.00;99.90;;;;;;5052110;28;20079;-72
2022/08/16 07:35:46;;;;;;;16.38;12.65;;;24.10;99.90;;;;;;5052409;28;20051;-71
2022/08/16 07:38:12;;;;;;;16.85;12.85;;;24.10;99.90;;;;;;5052200;28;20256;-72
2022/08/16 07:40:38;;;;;;;15.10;12.93;;;24.20;99.90;;;;;;5031123;28;20392;-72
2022/08/16 07:43:04;;;;;;;15.65;12.98;;;24.20;99.90;;;;;;5051232;28;20078;-72
2022/08/16 07:45:29;;;;;;;13.05;11.65;;;24.20;99.80;;;;;;5041358;28;20527;-72
2022/08/16 07:47:55;;;;;;;15.65;13.95;;;24.30;99.70;;;;;;5052708;28;20039;-72
2022/08/16 07:50:21;;;;;;;15.57;13.02;;;24.30;99.60;;;;;;5052906;28;20358;-71
2022/08/16 07:52:47;;;;;;;12.93;11.40;;;24.30;99.50;;;;;;5052343;28;20035;-71
2022/08/16 07:55:14;;;;;;;13.20;11.43;;;24.40;99.60;;;;;;5050924;28;20029;-67
2022/08/16 07:57:41;;;;;;;13.95;12.27;;;24.50;99.30;;;;;;5051404;28;20427;-67
2022/08/16 08:00:08;;;;;;;13.07;11.45;;;24.50;99.20;;;;;;5052341;28;20047;-69
2022/08/16 08:02:35;;;;;;;13.77;12.40;;;24.50;99.10;;;;;;5051466;28;20033;-69
2022/08/16 08:05:00;;;;;;;13.45;12.05;;;24.60;99.00;;;;;;5050819;28;20029;-70
2022/08/16 08:07:28;;;;;;;15.18;12.93;;;24.60;98.90;;;;;;5050442;28;20037;-69
2022/08/16 08:09:53;;;;;;;16.05;13.05;;;24.70;98.90;;;;;;5052923;28;20033;-70
2022/08/16 08:12:19;;;;;;;14.85;12.95;;;24.70;98.80;;;;;;5050124;28;20036;-70
2022/08/16 08:14:47;;;;;;;14.70;13.07;;;24.80;98.60;;;;;;5052701;28;20056;-70
2022/08/16 08:17:13;;;;;;;13.90;12.40;;;24.90;98.60;;;;;;5051129;28;20032;-69
2022/08/16 08:19:39;;;;;;;13.23;11.88;;;24.90;98.60;;;;;;5051319;28;20037;-70
2022/08/16 08:22:04;;;;;;;13.40;10.77;;;25.00;98.50;;;;;;5051933;28;20495;-70
2022/08/16 08:24:36;;;;;;;13.93;12.43;;;25.00;98.30;;;;;;5052454;28;20092;-70
2022/08/16 08:27:03;;;;;;;12.75;11.45;;;25.00;98.20;;;;;;5050203;28;20041;-70
2022/08/16 08:29:30;;;;;;;13.05;11.63;;;25.10;98.30;;;;;;5033582;28;20025;-70
2022/08/16 08:31:55;;;;;;;12.45;10.88;;;25.10;98.40;;;;;;5052902;28;20067;-70
2022/08/16 08:34:21;;;;;;;13.57;12.18;;;25.20;98.30;;;;;;5052838;28;20025;-70
2022/08/16 08:36:47;;;;;;;12.52;10.75;;;25.20;98.30;;;;;;5053005;28;20071;-70
2022/08/16 08:39:14;;;;;;;11.73;10.45;;;25.30;98.10;;;;;;5052901;28;20040;-71
2022/08/16 08:41:40;;;;;;;13.10;11.77;;;25.30;98.00;;;;;;5052853;28;20029;-70
2022/08/16 08:44:06;;;;;;;14.02;12.65;;;25.40;97.90;;;;;;5051242;28;20037;-70
2022/08/16 08:46:31;;;;;;;12.30;11.00;;;25.50;97.80;;;;;;5052507;28;20110;-70
2022/08/16 08:48:57;;;;;;;13.43;12.00;;;25.50;97.70;;;;;;5045281;28;20333;-70
2022/08/16 08:51:24;;;;;;;13.02;11.68;;;25.60;97.70;;;;;;5052492;28;20033;-70
2022/08/16 08:53:50;;;;;;;14.00;11.85;;;25.60;97.40;;;;;;5051935;28;20021;-70
2022/08/16 08:56:16;;;;;;;13.23;11.82;;;25.70;97.40;;;;;;5052064;28;20033;-70
2022/08/16 08:58:41;;;;;;;12.32;11.10;;;25.70;97.30;;;;;;5052097;28;20074;-70
2022/08/16 09:01:07;;;;;;;13.20;10.93;;;25.80;97.30;;;;;;5051651;28;20514;-69
2022/08/16 09:03:34;;;;;;;13.93;10.85;;;25.90;97.20;;;;;;5052058;28;20081;-69
2022/08/16 09:06:01;;;;;;;12.32;11.00;;;25.90;97.30;;;;;;5051231;28;20397;-70
2022/08/16 09:08:27;;;;;;;13.52;11.07;;;26.00;97.20;;;;;;5052157;28;20453;-70
2022/08/16 09:10:54;;;;;;;10.65;9.55;;;26.00;97.00;;;;;;5051982;28;20032;-69
2022/08/16 09:13:21;;;;;;;11.00;9.85;;;26.10;96.70;;;;;;5052177;28;20522;-69
2022/08/16 09:15:48;;;;;;;10.88;9.38;;;26.10;96.40;;;;;;5033073;28;20396;-69
2022/08/16 09:18:16;;;;;;;11.07;9.88;;;26.20;96.10;;;;;;5051767;28;20117;-70
2022/08/16 09:20:43;;;;;;;10.68;9.27;;;26.20;95.50;;;;;;5051563;28;20392;-69
2022/08/16 09:23:09;;;;;;;11.68;9.93;;;26.20;95.10;;;;;;5051731;28;20028;-69
2022/08/16 09:25:35;;;;;;;10.15;9.13;;;26.30;95.30;;;;;;5051856;28;20032;-69
2022/08/16 09:28:02;;;;;;;9.75;8.82;;;26.40;95.30;;;;;;5033240;28;20029;-69
2022/08/16 09:30:28;;;;;;;10.90;9.80;;;26.40;95.10;;;;;;5051734;28;20284;-69
2022/08/16 09:32:53;;;;;;;11.15;8.65;;;26.40;95.00;;;;;;5050693;28;20024;-69
2022/08/16 09:35:21;;;;;;;11.82;10.55;;;26.50;94.80;;;;;;5047355;28;20067;-69
2022/08/16 09:37:47;;;;;;;10.57;9.57;;;26.60;94.60;;;;;;5051179;28;20040;-69
2022/08/16 09:40:13;;;;;;;10.82;9.73;;;26.60;94.90;;;;;;5051913;28;20118;-69
2022/08/16 09:42:39;;;;;;;13.02;11.65;;;26.70;94.80;;;;;;5052461;28;20021;-69
2022/08/16 09:45:07;;;;;;;13.10;11.48;;;26.70;94.50;;;;;;5053762;28;20396;-69
2022/08/16 09:47:39;;;;;;;12.50;11.20;;;26.80;94.60;;;;;;5054478;28;20037;-69
2022/08/16 09:50:10;;;;;;;10.52;9.52;;;26.80;94.40;;;;;;5055273;28;20488;-69
2022/08/16 09:52:36;;;;;;;11.55;10.25;;;27.00;94.30;;;;;;5050980;28;20040;-69
2022/08/16 09:55:11;;;;;;;11.30;10.15;;;27.00;93.80;;;;;;5053476;28;20025;-69
2022/08/16 09:57:40;;;;;;;10.82;9.70;;;27.00;94.20;;;;;;5052326;28;20036;-69
2022/08/16 10:00:11;;;;;;;13.20;10.55;;;27.10;94.10;;;;;;5049996;28;20033;-68
2022/08/16 10:02:38;;;;;;;11.93;10.73;;;27.20;94.10;;;;;;5044679;28;20029;-69
2022/08/16 10:05:04;;;;;;;11.93;10.35;;;27.30;94.30;;;;;;5046354;28;20053;-68
2022/08/16 10:07:30;;;;;;;11.63;10.05;;;27.40;94.00;;;;;;5048227;28;20090;-68
2022/08/16 10:09:57;;;;;;;11.00;9.65;;;27.50;93.90;;;;;;5045723;28;20126;-69
2022/08/16 10:15:20;;;;;;;9.75;8.85;;;27.60;93.10;;;;;;5041529;28;20027;-68
2022/08/16 10:17:48;;;;;;;9.40;8.40;;;27.70;92.80;;;;;;5044377;28;20036;-67
2022/08/16 10:20:14;;;;;;;10.15;9.05;;;27.70;92.80;;;;;;5047940;28;20365;-68
2022/08/16 10:22:40;;;;;;;11.40;9.43;;;27.80;92.10;;;;;;5049062;28;20552;-68
2022/08/16 10:25:07;;;;;;;9.40;7.82;;;27.90;91.70;;;;;;5048789;28;20043;-67
2022/08/16 10:27:36;;;;;;;9.75;8.75;;;27.90;92.00;;;;;;5039972;28;20459;-67
2022/08/16 10:30:04;;;;;;;11.48;8.48;;;28.00;92.10;;;;;;5052730;28;20054;-68
2022/08/16 10:32:30;;;;;;;9.90;8.63;;;28.10;92.00;;;;;;5053084;28;20032;-68
2022/08/16 10:34:57;;;;;;;10.05;9.02;;;28.20;91.60;;;;;;5051068;28;20036;-68
2022/08/16 10:37:22;;;;;;;8.85;7.95;;;28.20;91.60;;;;;;5051178;28;20029;-68
2022/08/16 10:39:48;;;;;;;9.80;7.93;;;28.30;91.70;;;;;;5055624;28;20032;-68
2022/08/16 10:42:16;;;;;;;10.48;8.13;;;28.40;91.50;;;;;;5052681;28;20540;-69
2022/08/16 10:44:42;;;;;;;9.13;7.57;;;28.40;91.10;;;;;;5054046;28;20047;-68
2022/08/16 10:47:08;;;;;;;7.60;6.88;;;28.50;90.50;;;;;;5053503;28;20044;-68
2022/08/16 10:49:35;;;;;;;8.40;7.50;;;28.50;90.40;;;;;;5033029;28;20110;-68
2022/08/16 10:52:00;;;;;;;9.10;6.95;;;28.50;90.30;;;;;;5044444;28;20029;-68
2022/08/16 10:54:26;;;;;;;8.35;7.50;;;28.50;90.00;;;;;;5047541;28;20460;-68
2022/08/16 10:56:54;;;;;;;8.05;7.25;;;28.60;89.80;;;;;;5052816;28;20479;-68
2022/08/16 10:59:20;;;;;;;7.13;6.25;;;28.60;89.10;;;;;;5051133;28;20491;-68
2022/08/16 11:01:46;;;;;;;7.85;7.05;;;28.70;87.90;;;;;;5052959;28;20029;-69
2022/08/16 11:04:13;;;;;;;7.47;6.63;;;28.70;86.30;;;;;;5053339;28;20025;-69
2022/08/16 11:06:39;;;;;;;6.95;6.25;;;28.80;86.40;;;;;;5052510;28;20056;-68
2022/08/16 11:09:05;;;;;;;9.55;7.18;;;28.80;86.50;;;;;;5053518;28;20021;-69
2022/08/16 11:11:30;;;;;;;7.90;7.05;;;28.90;86.70;;;;;;5051656;28;20492;-68
2022/08/16 11:13:56;;;;;;;8.15;7.15;;;29.00;86.80;;;;;;5052248;28;20027;-68
2022/08/16 11:16:22;;;;;;;8.07;7.28;;;29.10;86.40;;;;;;5048774;28;20334;-68
2022/08/16 11:18:47;;;;;;;10.00;6.95;;;29.20;86.30;;;;;;5045292;28;20053;-68
2022/08/16 11:21:14;;;;;;;7.78;6.97;;;29.20;86.30;;;;;;5052911;28;20028;-69
2022/08/16 11:23:40;;;;;;;9.93;7.95;;;29.30;87.20;;;;;;5046372;28;20025;-68
2022/08/16 11:26:06;;;;;;;9.40;8.02;;;29.30;86.80;;;;;;5049876;28;20033;-68
2022/08/16 11:28:33;;;;;;;9.40;7.55;;;29.40;85.40;;;;;;5053174;28;20078;-68
2022/08/16 11:30:59;;;;;;;7.90;7.03;;;29.40;85.00;;;;;;5052659;28;20440;-68
2022/08/16 11:33:24;;;;;;;9.75;7.72;;;29.40;84.50;;;;;;5051430;28;20037;-67
2022/08/16 11:35:50;;;;;;;9.43;7.50;;;29.50;84.10;;;;;;5040618;28;20061;-66
2022/08/16 11:38:19;;;;;;;8.13;7.32;;;29.50;83.60;;;;;;5045836;28;20029;-67
2022/08/16 11:40:49;;;;;;;9.90;6.68;;;29.60;84.30;;;;;;5050272;28;20521;-67
2022/08/16 11:43:18;;;;;;;7.53;6.82;;;29.60;82.90;;;;;;5050475;28;20078;-67
2022/08/16 11:45:46;;;;;;;11.57;7.53;;;29.70;82.80;;;;;;5052881;28;20059;-67
2022/08/16 11:48:12;;;;;;;8.18;6.78;;;29.60;82.40;;;;;;5044040;28;20173;-67
2022/08/16 11:50:42;;;;;;;8.07;7.28;;;29.60;82.30;;;;;;5052687;28;20021;-67
2022/08/16 11:53:08;;;;;;;8.02;6.68;;;29.60;81.20;;;;;;5047197;28;20086;-68
2022/08/16 11:55:35;;;;;;;7.95;6.47;;;29.70;80.30;;;;;;5024898;28;20865;-68
2022/08/16 11:58:01;;;;;;;8.27;6.28;;;29.70;79.10;;;;;;5041336;28;20028;-67
2022/08/16 12:00:29;;;;;;;7.53;6.70;;;29.70;78.50;;;;;;5038904;28;20369;-68
2022/08/16 12:02:54;;;;;;;7.85;6.45;;;29.70;78.50;;;;;;5052366;28;20033;-68
2022/08/16 12:05:21;;;;;;;7.53;6.00;;;29.70;78.30;;;;;;5042841;28;20083;-69
2022/08/16 12:07:47;;;;;;;7.35;6.60;;;29.70;78.00;;;;;;5043560;28;20033;-67
2022/08/16 12:10:16;;;;;;;7.20;6.07;;;29.70;77.80;;;;;;5051748;28;20040;-67
2022/08/16 12:12:42;;;;;;;7.60;6.60;;;29.80;78.00;;;;;;5046499;28;20029;-67
2022/08/16 12:15:09;;;;;;;6.72;5.45;;;29.90;78.30;;;;;;5051339;28;20066;-68
2022/08/16 12:17:35;;;;;;;8.00;6.07;;;29.90;77.70;;;;;;5024687;28;20070;-68
2022/08/16 12:20:03;;;;;;;9.63;7.07;;;30.00;77.80;;;;;;5038555;28;20020;-68
2022/08/16 12:22:29;;;;;;;7.93;5.60;;;30.10;78.20;;;;;;5050528;28;20029;-68
2022/08/16 12:24:55;;;;;;;7.28;5.90;;;30.20;77.50;;;;;;5052154;28;20025;-68
2022/08/16 12:27:23;;;;;;;6.88;5.88;;;30.30;76.50;;;;;;5049627;28;20044;-68
2022/08/16 12:29:50;;;;;;;6.40;5.57;;;30.40;77.20;;;;;;5037540;28;20037;-68